Time,TemperatureF,DewpointF,PressureIn,WindDirection,WindDirectionDegrees,WindSpeedMPH,WindSpeedGustMPH,Humidity,HourlyPrecipIn,Conditions,Clouds,dailyrainin,SoftwareType,DateUTC
2013-07-02 00:01:00,59.9,52.4,30.06,North,0,0.0,0.0,76,0.00,,,0.00,WUHU216HW,2013-07-02 05:01:00,
2013-07-02 00:06:00,60.5,52.6,30.06,North,0,0.0,0.0,75,0.00,,,0.00,WUHU216HW,2013-07-02 05:06:00,
2013-07-02 00:11:00,60.5,52.2,30.06,North,0,0.0,0.0,74,0.00,,,0.00,WUHU216HW,2013-07-02 05:11:00,
2013-07-02 00:16:00,60.7,52.4,30.06,North,0,0.0,0.0,74,0.00,,,0.00,WUHU216HW,2013-07-02 05:16:00,
2013-07-02 00:21:00,60.8,52.2,30.06,North,0,0.0,0.0,73,0.00,,,0.00,WUHU216HW,2013-07-02 05:21:00,
2013-07-02 00:26:00,60.8,52.2,30.06,North,0,0.0,0.0,73,0.00,,,0.00,WUHU216HW,2013-07-02 05:26:00,
2013-07-02 00:31:00,60.5,51.5,30.05,North,0,0.0,0.0,72,0.00,,,0.00,WUHU216HW,2013-07-02 05:31:00,
2013-07-02 00:36:00,60.1,51.1,30.05,North,0,0.0,0.0,72,0.00,,,0.00,WUHU216HW,2013-07-02 05:36:00,
2013-07-02 00:41:00,59.6,50.9,30.05,North,0,0.0,0.0,73,0.00,,,0.00,WUHU216HW,2013-07-02 05:41:00,
2013-07-02 00:46:00,59.4,50.8,30.05,North,0,0.0,0.0,73,0.00,,,0.00,WUHU216HW,2013-07-02 05:46:00,
2013-07-02 00:51:00,59.4,51.1,30.05,North,0,0.0,0.0,74,0.00,,,0.00,WUHU216HW,2013-07-02 05:51:00,
2013-07-02 00:56:00,59.2,50.6,30.05,North,0,0.0,0.0,73,0.00,,,0.00,WUHU216HW,2013-07-02 05:56:00,
2013-07-02 01:01:00,58.7,50.4,30.06,North,0,0.0,0.0,74,0.00,,,0.00,WUHU216HW,2013-07-02 06:01:00,
2013-07-02 01:06:00,58.1,50.2,30.05,North,0,0.0,0.0,75,0.00,,,0.00,WUHU216HW,2013-07-02 06:06:00,
2013-07-02 01:11:00,57.6,49.7,30.05,North,0,0.0,0.0,75,0.00,,,0.00,WUHU216HW,2013-07-02 06:11:00,
2013-07-02 01:16:00,57.2,49.7,30.05,North,0,0.0,0.0,76,0.00,,,0.00,WUHU216HW,2013-07-02 06:16:00,
2013-07-02 01:21:00,57.1,50.6,30.05,North,0,0.0,0.0,79,0.00,,,0.00,WUHU216HW,2013-07-02 06:21:00,
2013-07-02 01:26:00,56.9,50.4,30.05,North,0,0.0,0.0,79,0.00,,,0.00,WUHU216HW,2013-07-02 06:26:00,
2013-07-02 01:31:00,56.7,50.2,30.05,North,0,0.0,0.0,79,0.00,,,0.00,WUHU216HW,2013-07-02 06:31:00,
2013-07-02 01:36:00,56.5,50.0,30.05,North,0,0.0,0.0,79,0.00,,,0.00,WUHU216HW,2013-07-02 06:36:00,
2013-07-02 01:41:00,56.3,49.9,30.05,North,0,0.0,0.0,79,0.00,,,0.00,WUHU216HW,2013-07-02 06:41:00,
2013-07-02 01:46:00,56.0,49.1,30.05,North,0,0.0,0.0,78,0.00,,,0.00,WUHU216HW,2013-07-02 06:46:00,
2013-07-02 01:51:00,55.6,49.1,30.04,North,0,0.0,0.0,79,0.00,,,0.00,WUHU216HW,2013-07-02 06:51:00,
2013-07-02 01:56:00,55.8,50.1,30.05,North,0,0.0,0.0,81,0.00,,,0.00,WUHU216HW,2013-07-02 06:56:00,
2013-07-02 02:01:00,55.8,50.1,30.05,North,0,0.0,0.0,81,0.00,,,0.00,WUHU216HW,2013-07-02 07:01:00,
2013-07-02 02:06:00,55.4,49.3,30.04,North,0,0.0,0.0,80,0.00,,,0.00,WUHU216HW,2013-07-02 07:06:00,
2013-07-02 02:11:00,55.1,49.0,30.04,North,0,0.0,0.0,80,0.00,,,0.00,WUHU216HW,2013-07-02 07:11:00,
2013-07-02 02:16:00,54.9,48.9,30.04,North,0,0.0,0.0,80,0.00,,,0.00,WUHU216HW,2013-07-02 07:16:00,
2013-07-02 02:21:00,54.9,48.9,30.04,North,0,0.0,0.0,80,0.00,,,0.00,WUHU216HW,2013-07-02 07:21:00,
2013-07-02 02:26:00,55.1,49.0,30.04,North,0,0.0,0.0,80,0.00,,,0.00,WUHU216HW,2013-07-02 07:26:00,
2013-07-02 02:31:00,54.9,48.9,30.04,North,0,0.0,0.0,80,0.00,,,0.00,WUHU216HW,2013-07-02 07:31:00,
2013-07-02 02:36:00,54.9,49.1,30.04,North,0,0.0,0.0,81,0.00,,,0.00,WUHU216HW,2013-07-02 07:36:00,
2013-07-02 02:41:00,54.9,49.1,30.04,North,0,0.0,0.0,81,0.00,,,0.00,WUHU216HW,2013-07-02 07:41:00,
2013-07-02 02:46:00,54.9,49.1,30.04,North,0,0.0,0.0,81,0.00,,,0.00,WUHU216HW,2013-07-02 07:46:00,
2013-07-02 02:51:00,55.1,49.3,30.04,North,0,0.0,0.0,81,0.00,,,0.00,WUHU216HW,2013-07-02 07:51:00,
2013-07-02 02:56:00,55.6,50.1,30.04,North,0,0.0,0.0,82,0.00,,,0.00,WUHU216HW,2013-07-02 07:56:00,
2013-07-02 03:01:00,55.8,50.3,30.04,North,0,0.0,0.0,82,0.00,,,0.00,WUHU216HW,2013-07-02 08:01:00,
2013-07-02 03:06:00,55.6,50.1,30.04,North,0,0.0,0.0,82,0.00,,,0.00,WUHU216HW,2013-07-02 08:06:00,
2013-07-02 03:11:00,55.4,49.7,30.04,North,0,0.0,0.0,81,0.00,,,0.00,WUHU216HW,2013-07-02 08:11:00,
2013-07-02 03:16:00,55.3,49.5,30.04,North,0,0.0,0.0,81,0.00,,,0.00,WUHU216HW,2013-07-02 08:16:00,
2013-07-02 03:21:00,55.1,49.3,30.04,North,0,0.0,0.0,81,0.00,,,0.00,WUHU216HW,2013-07-02 08:21:00,
2013-07-02 03:26:00,55.3,49.8,30.04,North,0,0.0,0.0,82,0.00,,,0.00,WUHU216HW,2013-07-02 08:26:00,
2013-07-02 03:31:00,55.4,50.0,30.04,North,0,0.0,0.0,82,0.00,,,0.00,WUHU216HW,2013-07-02 08:31:00,
2013-07-02 03:36:00,55.8,50.3,30.04,North,0,0.0,0.0,82,0.00,,,0.00,WUHU216HW,2013-07-02 08:36:00,
2013-07-02 03:41:00,56.0,50.5,30.04,North,0,0.0,0.0,82,0.00,,,0.00,WUHU216HW,2013-07-02 08:41:00,
2013-07-02 03:46:00,56.0,50.5,30.04,North,0,0.0,0.0,82,0.00,,,0.00,WUHU216HW,2013-07-02 08:46:00,
2013-07-02 03:51:00,56.0,50.5,30.04,North,0,0.0,0.0,82,0.00,,,0.00,WUHU216HW,2013-07-02 08:51:00,
2013-07-02 03:56:00,56.0,50.5,30.04,North,0,0.0,0.0,82,0.00,,,0.00,WUHU216HW,2013-07-02 08:56:00,
2013-07-02 04:01:00,56.0,50.5,30.04,North,0,0.0,0.0,82,0.00,,,0.00,WUHU216HW,2013-07-02 09:01:00,
2013-07-02 04:06:00,56.2,50.7,30.04,North,0,0.0,0.0,82,0.00,,,0.00,WUHU216HW,2013-07-02 09:06:00,
2013-07-02 04:11:00,56.2,50.7,30.04,North,0,0.0,0.0,82,0.00,,,0.00,WUHU216HW,2013-07-02 09:11:00,
2013-07-02 04:16:00,55.8,50.1,30.04,North,0,0.0,0.0,81,0.00,,,0.00,WUHU216HW,2013-07-02 09:16:00,
2013-07-02 04:21:00,55.4,49.7,30.05,North,0,0.0,0.0,81,0.00,,,0.00,WUHU216HW,2013-07-02 09:21:00,
2013-07-02 04:26:00,55.1,49.7,30.04,North,0,0.0,0.0,82,0.00,,,0.00,WUHU216HW,2013-07-02 09:26:00,
2013-07-02 04:31:00,54.9,49.5,30.04,North,0,0.0,0.0,82,0.00,,,0.00,WUHU216HW,2013-07-02 09:31:00,
2013-07-02 04:36:00,54.5,49.1,30.04,North,0,0.0,0.0,82,0.00,,,0.00,WUHU216HW,2013-07-02 09:36:00,
2013-07-02 04:41:00,54.4,49.0,30.05,North,0,0.0,0.0,82,0.00,,,0.00,WUHU216HW,2013-07-02 09:41:00,
2013-07-02 04:46:00,54.4,49.0,30.05,North,0,0.0,0.0,82,0.00,,,0.00,WUHU216HW,2013-07-02 09:46:00,
2013-07-02 04:51:00,54.0,48.6,30.05,North,0,0.0,0.0,82,0.00,,,0.00,WUHU216HW,2013-07-02 09:51:00,
2013-07-02 04:56:00,53.6,48.3,30.05,North,0,0.0,0.0,82,0.00,,,0.00,WUHU216HW,2013-07-02 09:56:00,
2013-07-02 05:01:00,53.5,48.2,30.05,North,0,0.0,0.0,82,0.00,,,0.00,WUHU216HW,2013-07-02 10:01:00,
2013-07-02 05:06:00,53.3,48.2,30.05,North,0,0.0,0.0,83,0.00,,,0.00,WUHU216HW,2013-07-02 10:06:00,
2013-07-02 05:11:00,53.3,48.2,30.05,North,0,0.0,0.0,83,0.00,,,0.00,WUHU216HW,2013-07-02 10:11:00,
2013-07-02 05:16:00,53.5,48.8,30.05,North,0,0.0,0.0,84,0.00,,,0.00,WUHU216HW,2013-07-02 10:16:00,
2013-07-02 05:21:00,53.5,48.8,30.05,North,0,0.0,0.0,84,0.00,,,0.00,WUHU216HW,2013-07-02 10:21:00,
2013-07-02 05:26:00,53.3,48.6,30.05,North,0,0.0,0.0,84,0.00,,,0.00,WUHU216HW,2013-07-02 10:26:00,
2013-07-02 05:31:00,53.1,48.4,30.05,North,0,0.0,0.0,84,0.00,,,0.00,WUHU216HW,2013-07-02 10:31:00,
2013-07-02 05:36:00,52.9,48.3,30.05,North,0,0.0,0.0,84,0.00,,,0.00,WUHU216HW,2013-07-02 10:36:00,
2013-07-02 05:41:00,52.9,48.3,30.05,North,0,0.0,0.0,84,0.00,,,0.00,WUHU216HW,2013-07-02 10:41:00,
2013-07-02 05:46:00,53.3,48.9,30.05,North,0,0.0,0.0,85,0.00,,,0.00,WUHU216HW,2013-07-02 10:46:00,
2013-07-02 05:51:00,53.6,49.2,30.05,North,0,0.0,0.0,85,0.00,,,0.00,WUHU216HW,2013-07-02 10:51:00,
2013-07-02 05:56:00,53.6,49.2,30.05,North,0,0.0,0.0,85,0.00,,,0.00,WUHU216HW,2013-07-02 10:56:00,
2013-07-02 06:01:00,53.8,49.7,30.06,North,0,0.0,0.0,86,0.00,,,0.00,WUHU216HW,2013-07-02 11:01:00,
2013-07-02 06:06:00,54.4,50.2,30.06,North,0,0.0,0.0,86,0.00,,,0.00,WUHU216HW,2013-07-02 11:06:00,
2013-07-02 06:11:00,54.7,50.6,30.06,North,0,0.0,0.0,86,0.00,,,0.00,WUHU216HW,2013-07-02 11:11:00,
2013-07-02 06:16:00,54.9,50.8,30.06,North,0,0.0,0.0,86,0.00,,,0.00,WUHU216HW,2013-07-02 11:16:00,
2013-07-02 06:21:00,55.3,51.1,30.06,North,0,0.0,0.0,86,0.00,,,0.00,WUHU216HW,2013-07-02 11:21:00,
2013-07-02 06:26:00,55.4,51.3,30.07,North,0,0.0,0.0,86,0.00,,,0.00,WUHU216HW,2013-07-02 11:26:00,
2013-07-02 06:31:00,55.8,51.3,30.06,North,0,0.0,0.0,85,0.00,,,0.00,WUHU216HW,2013-07-02 11:31:00,
2013-07-02 06:36:00,56.2,51.7,30.07,North,0,0.0,0.0,85,0.00,,,0.00,WUHU216HW,2013-07-02 11:36:00,
2013-07-02 06:41:00,56.7,52.2,30.07,North,0,0.0,0.0,85,0.00,,,0.00,WUHU216HW,2013-07-02 11:41:00,
2013-07-02 06:46:00,57.1,52.2,30.07,North,0,0.0,0.0,84,0.00,,,0.00,WUHU216HW,2013-07-02 11:46:00,
2013-07-02 06:51:00,57.1,52.2,30.07,North,0,0.0,0.0,84,0.00,,,0.00,WUHU216HW,2013-07-02 11:51:00,
2013-07-02 06:56:00,56.9,52.4,30.07,North,0,0.0,0.0,85,0.00,,,0.00,WUHU216HW,2013-07-02 11:56:00,
2013-07-02 07:01:00,57.2,52.7,30.07,North,0,0.0,0.0,85,0.00,,,0.00,WUHU216HW,2013-07-02 12:01:00,
2013-07-02 07:06:00,57.6,53.1,30.07,North,0,0.0,0.0,85,0.00,,,0.00,WUHU216HW,2013-07-02 12:06:00,
2013-07-02 07:11:00,58.1,53.3,30.07,North,0,0.0,0.0,84,0.00,,,0.00,WUHU216HW,2013-07-02 12:11:00,
2013-07-02 07:16:00,58.5,53.6,30.07,North,0,0.0,0.0,84,0.00,,,0.00,WUHU216HW,2013-07-02 12:16:00,
2013-07-02 07:21:00,58.9,53.7,30.07,North,0,0.0,0.0,83,0.00,,,0.00,WUHU216HW,2013-07-02 12:21:00,
2013-07-02 07:26:00,59.4,54.3,30.07,North,0,0.0,0.0,83,0.00,,,0.00,WUHU216HW,2013-07-02 12:26:00,
2013-07-02 07:31:00,59.9,54.5,30.07,North,0,0.0,0.0,82,0.00,,,0.00,WUHU216HW,2013-07-02 12:31:00,
2013-07-02 07:36:00,60.3,54.8,30.07,North,0,0.0,0.0,82,0.00,,,0.00,WUHU216HW,2013-07-02 12:36:00,
2013-07-02 07:41:00,60.8,55.1,30.07,North,0,0.0,0.0,81,0.00,,,0.00,WUHU216HW,2013-07-02 12:41:00,
2013-07-02 07:46:00,61.4,55.5,30.07,North,0,0.0,0.0,81,0.00,,,0.00,WUHU216HW,2013-07-02 12:46:00,
2013-07-02 07:51:00,61.9,55.7,30.07,North,0,0.0,0.0,80,0.00,,,0.00,WUHU216HW,2013-07-02 12:51:00,
2013-07-02 07:56:00,62.6,56.0,30.07,North,0,0.0,0.0,79,0.00,,,0.00,WUHU216HW,2013-07-02 12:56:00,
2013-07-02 08:01:00,63.2,55.8,30.07,North,0,0.0,0.0,77,0.00,,,0.00,WUHU216HW,2013-07-02 13:01:00,
2013-07-02 08:06:00,63.9,56.2,30.07,North,0,0.0,0.0,76,0.00,,,0.00,WUHU216HW,2013-07-02 13:06:00,
2013-07-02 08:11:00,65.0,56.5,30.07,North,0,0.0,0.0,74,0.00,,,0.00,WUHU216HW,2013-07-02 13:11:00,
2013-07-02 08:16:00,65.9,56.6,30.07,North,0,0.0,0.0,72,0.00,,,0.00,WUHU216HW,2013-07-02 13:16:00,
2013-07-02 08:21:00,66.8,55.9,30.07,North,0,0.0,0.0,68,0.00,,,0.00,WUHU216HW,2013-07-02 13:21:00,
2013-07-02 08:26:00,67.7,57.2,30.07,North,0,0.0,0.0,69,0.00,,,0.00,WUHU216HW,2013-07-02 13:26:00,
2013-07-02 08:31:00,68.0,56.3,30.07,North,0,0.0,0.0,66,0.00,,,0.00,WUHU216HW,2013-07-02 13:31:00,
2013-07-02 08:36:00,68.0,55.4,30.07,North,0,0.0,0.0,64,0.00,,,0.00,WUHU216HW,2013-07-02 13:36:00,
2013-07-02 08:41:00,68.2,54.3,30.07,North,0,0.0,0.0,61,0.00,,,0.00,WUHU216HW,2013-07-02 13:41:00,
2013-07-02 08:46:00,68.6,55.0,30.07,North,0,0.0,0.0,62,0.00,,,0.00,WUHU216HW,2013-07-02 13:46:00,
2013-07-02 08:51:00,69.3,54.9,30.07,North,0,0.0,0.0,60,0.00,,,0.00,WUHU216HW,2013-07-02 13:51:00,
2013-07-02 08:56:00,69.3,54.9,30.07,North,0,0.0,0.0,60,0.00,,,0.00,WUHU216HW,2013-07-02 13:56:00,
2013-07-02 09:01:00,69.8,54.9,30.07,North,0,0.0,0.0,59,0.00,,,0.00,WUHU216HW,2013-07-02 14:01:00,
2013-07-02 09:06:00,70.4,54.5,30.07,North,0,0.0,0.0,57,0.00,,,0.00,WUHU216HW,2013-07-02 14:06:00,
2013-07-02 09:11:00,70.9,55.5,30.07,North,0,0.0,0.0,58,0.00,,,0.00,WUHU216HW,2013-07-02 14:11:00,
2013-07-02 09:16:00,70.9,54.4,30.07,North,0,0.0,0.0,56,0.00,,,0.00,WUHU216HW,2013-07-02 14:16:00,
2013-07-02 09:21:00,70.9,54.9,30.07,North,0,0.0,0.0,57,0.00,,,0.00,WUHU216HW,2013-07-02 14:21:00,
2013-07-02 09:26:00,71.3,54.7,30.07,North,0,0.0,0.0,56,0.00,,,0.00,WUHU216HW,2013-07-02 14:26:00,
2013-07-02 09:31:00,70.9,54.4,30.07,North,0,0.0,0.0,56,0.00,,,0.00,WUHU216HW,2013-07-02 14:31:00,
2013-07-02 09:36:00,71.6,55.5,30.07,North,0,0.0,0.0,57,0.00,,,0.00,WUHU216HW,2013-07-02 14:36:00,
2013-07-02 09:41:00,72.2,56.1,30.07,North,0,0.0,0.0,57,0.00,,,0.00,WUHU216HW,2013-07-02 14:41:00,
2013-07-02 09:46:00,72.9,56.7,30.07,North,0,0.0,0.0,57,0.00,,,0.00,WUHU216HW,2013-07-02 14:46:00,
2013-07-02 09:51:00,72.9,56.2,30.07,North,0,0.0,0.0,56,0.00,,,0.00,WUHU216HW,2013-07-02 14:51:00,
2013-07-02 09:56:00,72.5,55.4,30.07,North,0,0.0,0.0,55,0.00,,,0.00,WUHU216HW,2013-07-02 14:56:00,
2013-07-02 10:01:00,72.0,54.9,30.07,North,0,0.0,0.0,55,0.00,,,0.00,WUHU216HW,2013-07-02 15:01:00,
2013-07-02 10:06:00,72.4,55.2,30.07,North,0,0.0,0.0,55,0.00,,,0.00,WUHU216HW,2013-07-02 15:06:00,
2013-07-02 10:11:00,72.5,54.4,30.07,North,0,0.0,0.0,53,0.00,,,0.00,WUHU216HW,2013-07-02 15:11:00,
2013-07-02 10:16:00,72.7,55.5,30.07,North,0,0.0,0.0,55,0.00,,,0.00,WUHU216HW,2013-07-02 15:16:00,
2013-07-02 10:21:00,72.5,55.4,30.07,North,0,0.0,0.0,55,0.00,,,0.00,WUHU216HW,2013-07-02 15:21:00,
2013-07-02 10:26:00,72.7,54.0,30.07,North,0,0.0,0.0,52,0.00,,,0.00,WUHU216HW,2013-07-02 15:26:00,
2013-07-02 10:31:00,72.5,53.4,30.07,North,0,0.0,0.0,51,0.00,,,0.00,WUHU216HW,2013-07-02 15:31:00,
2013-07-02 10:36:00,72.9,54.6,30.07,North,0,0.0,0.0,53,0.00,,,0.00,WUHU216HW,2013-07-02 15:36:00,
2013-07-02 10:41:00,73.8,55.0,30.07,North,0,0.0,0.0,52,0.00,,,0.00,WUHU216HW,2013-07-02 15:41:00,
2013-07-02 10:46:00,74.5,55.3,30.06,North,0,0.0,0.0,51,0.00,,,0.00,WUHU216HW,2013-07-02 15:46:00,
2013-07-02 10:51:00,75.2,55.4,30.07,North,0,0.0,0.0,50,0.00,,,0.00,WUHU216HW,2013-07-02 15:51:00,
2013-07-02 10:56:00,74.3,53.4,30.06,North,0,0.0,0.0,48,0.00,,,0.00,WUHU216HW,2013-07-02 15:56:00,
2013-07-02 11:01:00,74.3,53.4,30.07,North,0,0.0,0.0,48,0.00,,,0.00,WUHU216HW,2013-07-02 16:01:00,
2013-07-02 11:06:00,74.2,53.2,30.06,North,0,0.0,0.0,48,0.00,,,0.00,WUHU216HW,2013-07-02 16:06:00,
2013-07-02 11:11:00,73.8,52.2,30.06,North,0,0.0,0.0,47,0.00,,,0.00,WUHU216HW,2013-07-02 16:11:00,
2013-07-02 11:16:00,73.8,54.0,30.06,North,0,0.0,0.0,50,0.00,,,0.00,WUHU216HW,2013-07-02 16:16:00,
2013-07-02 11:21:00,74.5,53.6,30.06,North,0,0.0,0.0,48,0.00,,,0.00,WUHU216HW,2013-07-02 16:21:00,
2013-07-02 11:26:00,74.7,51.8,30.06,North,0,0.0,0.0,45,0.00,,,0.00,WUHU216HW,2013-07-02 16:26:00,
2013-07-02 11:31:00,75.4,55.0,30.06,North,0,0.0,0.0,49,0.00,,,0.00,WUHU216HW,2013-07-02 16:31:00,
2013-07-02 11:36:00,76.7,54.9,30.06,North,0,0.0,0.0,47,0.00,,,0.00,WUHU216HW,2013-07-02 16:36:00,
2013-07-02 11:41:00,77.4,54.9,30.05,North,0,0.0,0.0,46,0.00,,,0.00,WUHU216HW,2013-07-02 16:41:00,
2013-07-02 11:46:00,78.5,55.9,30.06,North,0,0.0,0.0,46,0.00,,,0.00,WUHU216HW,2013-07-02 16:46:00,
2013-07-02 11:51:00,79.0,55.8,30.06,North,0,0.0,0.0,45,0.00,,,0.00,WUHU216HW,2013-07-02 16:51:00,
2013-07-02 11:56:00,77.4,52.5,30.06,North,0,0.0,0.0,42,0.00,,,0.00,WUHU216HW,2013-07-02 16:56:00,
2013-07-02 12:01:00,77.2,54.2,30.06,North,0,0.0,0.0,45,0.00,,,0.00,WUHU216HW,2013-07-02 17:01:00,
2013-07-02 12:06:00,78.5,54.7,30.06,North,0,0.0,0.0,44,0.00,,,0.00,WUHU216HW,2013-07-02 17:06:00,
2013-07-02 12:11:00,78.8,55.0,30.05,North,0,0.0,0.0,44,0.00,,,0.00,WUHU216HW,2013-07-02 17:11:00,
2013-07-02 12:16:00,79.2,55.4,30.05,North,0,0.0,0.0,44,0.00,,,0.00,WUHU216HW,2013-07-02 17:16:00,
2013-07-02 12:21:00,79.2,55.4,30.05,North,0,0.0,0.0,44,0.00,,,0.00,WUHU216HW,2013-07-02 17:21:00,
2013-07-02 12:26:00,79.6,55.1,30.06,North,0,0.0,0.0,43,0.00,,,0.00,WUHU216HW,2013-07-02 17:26:00,
2013-07-02 12:31:00,78.8,53.8,30.05,North,0,0.0,0.0,42,0.00,,,0.00,WUHU216HW,2013-07-02 17:31:00,
2013-07-02 12:36:00,78.3,55.2,30.05,North,0,0.0,0.0,45,0.00,,,0.00,WUHU216HW,2013-07-02 17:36:00,
2013-07-02 12:41:00,78.5,52.8,30.05,North,0,0.0,0.0,41,0.00,,,0.00,WUHU216HW,2013-07-02 17:41:00,
2013-07-02 12:46:00,77.8,54.0,30.05,North,0,0.0,0.0,44,0.00,,,0.00,WUHU216HW,2013-07-02 17:46:00,
2013-07-02 12:51:00,77.4,53.1,30.05,North,0,0.0,0.0,43,0.00,,,0.00,WUHU216HW,2013-07-02 17:51:00,
2013-07-02 12:56:00,77.2,52.3,30.05,North,0,0.0,0.0,42,0.00,,,0.00,WUHU216HW,2013-07-02 17:56:00,
2013-07-02 13:01:00,77.0,51.6,30.05,North,0,0.0,0.0,41,0.00,,,0.00,WUHU216HW,2013-07-02 18:01:00,
2013-07-02 13:06:00,77.9,51.8,30.05,North,0,0.0,0.0,40,0.00,,,0.00,WUHU216HW,2013-07-02 18:06:00,
2013-07-02 13:11:00,78.1,51.9,30.05,North,0,0.0,0.0,40,0.00,,,0.00,WUHU216HW,2013-07-02 18:11:00,
2013-07-02 13:16:00,77.8,52.2,30.05,North,0,0.0,0.0,41,0.00,,,0.00,WUHU216HW,2013-07-02 18:16:00,
2013-07-02 13:21:00,77.8,52.2,30.05,North,0,0.0,0.0,41,0.00,,,0.00,WUHU216HW,2013-07-02 18:21:00,
2013-07-02 13:26:00,78.1,51.1,30.05,North,0,0.0,0.0,39,0.00,,,0.00,WUHU216HW,2013-07-02 18:26:00,
2013-07-02 13:31:00,77.8,50.9,30.05,North,0,0.0,0.0,39,0.00,,,0.00,WUHU216HW,2013-07-02 18:31:00,
2013-07-02 13:36:00,79.2,52.9,30.04,North,0,0.0,0.0,40,0.00,,,0.00,WUHU216HW,2013-07-02 18:36:00,
2013-07-02 13:41:00,80.1,52.1,30.04,North,0,0.0,0.0,38,0.00,,,0.00,WUHU216HW,2013-07-02 18:41:00,
2013-07-02 13:46:00,80.5,52.5,30.04,North,0,0.0,0.0,38,0.00,,,0.00,WUHU216HW,2013-07-02 18:46:00,
2013-07-02 13:51:00,79.9,49.7,30.04,North,0,0.0,0.0,35,0.00,,,0.00,WUHU216HW,2013-07-02 18:51:00,
2013-07-02 13:56:00,79.6,49.3,30.04,North,0,0.0,0.0,35,0.00,,,0.00,WUHU216HW,2013-07-02 18:56:00,
2013-07-02 14:01:00,79.6,49.3,30.04,North,0,0.0,0.0,35,0.00,,,0.00,WUHU216HW,2013-07-02 19:01:00,
2013-07-02 14:06:00,80.6,48.8,30.04,North,0,0.0,0.0,33,0.00,,,0.00,WUHU216HW,2013-07-02 19:06:00,
2013-07-02 14:11:00,80.5,47.1,30.04,North,0,0.0,0.0,31,0.00,,,0.00,WUHU216HW,2013-07-02 19:11:00,
2013-07-02 14:16:00,79.9,45.8,30.04,North,0,0.0,0.0,30,0.00,,,0.00,WUHU216HW,2013-07-02 19:16:00,
2013-07-02 14:21:00,78.1,45.0,30.04,North,0,0.0,0.0,31,0.00,,,0.00,WUHU216HW,2013-07-02 19:21:00,
2013-07-02 14:26:00,79.2,47.4,30.03,North,0,0.0,0.0,33,0.00,,,0.00,WUHU216HW,2013-07-02 19:26:00,
2013-07-02 14:31:00,79.4,46.9,30.03,North,0,0.0,0.0,32,0.00,,,0.00,WUHU216HW,2013-07-02 19:31:00,
2013-07-02 14:36:00,80.3,49.2,30.03,North,0,0.0,0.0,34,0.00,,,0.00,WUHU216HW,2013-07-02 19:36:00,
2013-07-02 14:41:00,81.2,47.6,30.03,North,0,0.0,0.0,31,0.00,,,0.00,WUHU216HW,2013-07-02 19:41:00,
2013-07-02 14:46:00,81.4,48.6,30.03,North,0,0.0,0.0,32,0.00,,,0.00,WUHU216HW,2013-07-02 19:46:00,
2013-07-02 14:51:00,82.1,49.1,30.03,North,0,0.0,0.0,32,0.00,,,0.00,WUHU216HW,2013-07-02 19:51:00,
2013-07-02 14:56:00,81.2,45.8,30.03,North,0,0.0,0.0,29,0.00,,,0.00,WUHU216HW,2013-07-02 19:56:00,
2013-07-02 15:01:00,80.3,46.1,30.03,North,0,0.0,0.0,30,0.00,,,0.00,WUHU216HW,2013-07-02 20:01:00,
2013-07-02 15:06:00,80.3,46.9,30.03,North,0,0.0,0.0,31,0.00,,,0.00,WUHU216HW,2013-07-02 20:06:00,
2013-07-02 15:11:00,80.1,48.2,30.03,North,0,0.0,0.0,33,0.00,,,0.00,WUHU216HW,2013-07-02 20:11:00,
2013-07-02 15:16:00,80.5,48.6,30.03,North,0,0.0,0.0,33,0.00,,,0.00,WUHU216HW,2013-07-02 20:16:00,
2013-07-02 15:21:00,80.5,49.4,30.03,North,0,0.0,0.0,34,0.00,,,0.00,WUHU216HW,2013-07-02 20:21:00,
2013-07-02 15:26:00,79.7,47.2,30.03,North,0,0.0,0.0,32,0.00,,,0.00,WUHU216HW,2013-07-02 20:26:00,
2013-07-02 15:31:00,78.1,47.4,30.03,North,0,0.0,0.0,34,0.00,,,0.00,WUHU216HW,2013-07-02 20:31:00,
2013-07-02 15:36:00,77.0,46.5,30.03,North,0,0.0,0.0,34,0.00,,,0.00,WUHU216HW,2013-07-02 20:36:00,
2013-07-02 15:37:00,77.0,46.5,30.03,North,0,0.0,0.0,34,0.00,,,0.00,WUHU216HW,2013-07-02 20:37:00,
2013-07-02 15:41:00,76.9,47.0,30.02,North,0,0.0,0.0,35,0.00,,,0.00,WUHU216HW,2013-07-02 20:41:00,
2013-07-02 15:46:00,76.9,47.8,30.03,North,0,0.0,0.0,36,0.00,,,0.00,WUHU216HW,2013-07-02 20:46:00,
2013-07-02 15:52:00,76.9,48.5,30.02,North,0,0.0,0.0,37,0.00,,,0.00,WUHU216HW,2013-07-02 20:52:00,
2013-07-02 15:57:00,77.8,49.3,30.02,North,0,0.0,0.0,37,0.00,,,0.00,WUHU216HW,2013-07-02 20:57:00,
2013-07-02 16:02:00,78.5,47.6,30.02,North,0,0.0,0.0,34,0.00,,,0.00,WUHU216HW,2013-07-02 21:02:00,
2013-07-02 16:07:00,78.5,49.1,30.02,North,0,0.0,0.0,36,0.00,,,0.00,WUHU216HW,2013-07-02 21:07:00,
2013-07-02 16:12:00,77.4,47.4,30.03,North,0,0.0,0.0,35,0.00,,,0.00,WUHU216HW,2013-07-02 21:12:00,
2013-07-02 16:17:00,77.8,49.3,30.03,North,0,0.0,0.0,37,0.00,,,0.00,WUHU216HW,2013-07-02 21:17:00,
2013-07-02 16:22:00,78.8,50.2,30.02,North,0,0.0,0.0,37,0.00,,,0.00,WUHU216HW,2013-07-02 21:22:00,
2013-07-02 16:27:00,78.8,47.2,30.03,North,0,0.0,0.0,33,0.00,,,0.00,WUHU216HW,2013-07-02 21:27:00,
2013-07-02 16:32:00,78.5,47.6,30.03,North,0,0.0,0.0,34,0.00,,,0.00,WUHU216HW,2013-07-02 21:32:00,
2013-07-02 16:37:00,79.6,48.6,30.02,North,0,0.0,0.0,34,0.00,,,0.00,WUHU216HW,2013-07-02 21:37:00,
2013-07-02 16:42:00,78.5,47.6,30.02,North,0,0.0,0.0,34,0.00,,,0.00,WUHU216HW,2013-07-02 21:42:00,
2013-07-02 16:47:00,77.4,46.7,30.02,North,0,0.0,0.0,34,0.00,,,0.00,WUHU216HW,2013-07-02 21:47:00,
2013-07-02 16:52:00,77.0,46.5,30.02,North,0,0.0,0.0,34,0.00,,,0.00,WUHU216HW,2013-07-02 21:52:00,
2013-07-02 16:57:00,77.6,46.1,30.02,North,0,0.0,0.0,33,0.00,,,0.00,WUHU216HW,2013-07-02 21:57:00,
2013-07-02 17:02:00,78.3,47.4,30.02,North,0,0.0,0.0,34,0.00,,,0.00,WUHU216HW,2013-07-02 22:02:00,
2013-07-02 17:07:00,77.6,46.9,30.02,North,0,0.0,0.0,34,0.00,,,0.00,WUHU216HW,2013-07-02 22:07:00,
2013-07-02 17:12:00,76.7,46.8,30.02,North,0,0.0,0.0,35,0.00,,,0.00,WUHU216HW,2013-07-02 22:12:00,
2013-07-02 17:17:00,77.0,49.4,30.02,North,0,0.0,0.0,38,0.00,,,0.00,WUHU216HW,2013-07-02 22:17:00,
2013-07-02 17:22:00,76.7,48.3,30.02,North,0,0.0,0.0,37,0.00,,,0.00,WUHU216HW,2013-07-02 22:22:00,
2013-07-02 17:27:00,76.1,46.4,30.02,North,0,0.0,0.0,35,0.00,,,0.00,WUHU216HW,2013-07-02 22:27:00,
2013-07-02 17:32:00,76.0,47.7,30.02,North,0,0.0,0.0,37,0.00,,,0.00,WUHU216HW,2013-07-02 22:32:00,
2013-07-02 17:37:00,75.6,48.2,30.02,North,0,0.0,0.0,38,0.00,,,0.00,WUHU216HW,2013-07-02 22:37:00,
2013-07-02 17:42:00,75.2,48.6,30.02,North,0,0.0,0.0,39,0.00,,,0.00,WUHU216HW,2013-07-02 22:42:00,
2013-07-02 17:47:00,74.9,48.2,30.02,North,0,0.0,0.0,39,0.00,,,0.00,WUHU216HW,2013-07-02 22:47:00,
2013-07-02 17:52:00,74.3,48.5,30.02,North,0,0.0,0.0,40,0.00,,,0.00,WUHU216HW,2013-07-02 22:52:00,
2013-07-02 17:56:00,73.8,48.6,30.01,North,0,0.0,0.0,41,0.00,,,0.00,WUHU216HW,2013-07-02 22:56:00,
2013-07-02 18:01:00,73.4,48.9,30.02,North,0,0.0,0.0,42,0.00,,,0.00,WUHU216HW,2013-07-02 23:01:00,
2013-07-02 18:06:00,73.1,49.1,30.01,North,0,0.0,0.0,43,0.00,,,0.00,WUHU216HW,2013-07-02 23:06:00,
2013-07-02 18:11:00,72.7,49.4,30.02,North,0,0.0,0.0,44,0.00,,,0.00,WUHU216HW,2013-07-02 23:11:00,
2013-07-02 18:16:00,72.7,50.1,30.02,North,0,0.0,0.0,45,0.00,,,0.00,WUHU216HW,2013-07-02 23:16:00,
2013-07-02 18:21:00,72.7,51.9,30.02,North,0,0.0,0.0,48,0.00,,,0.00,WUHU216HW,2013-07-02 23:21:00,
2013-07-02 18:26:00,72.5,53.4,30.02,North,0,0.0,0.0,51,0.00,,,0.00,WUHU216HW,2013-07-02 23:26:00,
2013-07-02 18:29:00,72.4,53.2,30.02,North,0,0.0,0.0,51,0.00,,,0.00,WUHU216HW,2013-07-02 23:29:00,
2013-07-02 18:34:00,71.8,53.7,30.02,North,0,0.0,0.0,53,0.00,,,0.00,WUHU216HW,2013-07-02 23:34:00,
2013-07-02 18:39:00,71.6,53.6,30.02,North,0,0.0,0.0,53,0.00,,,0.00,WUHU216HW,2013-07-02 23:39:00,
2013-07-02 18:44:00,71.5,53.9,30.02,North,0,0.0,0.0,54,0.00,,,0.00,WUHU216HW,2013-07-02 23:44:00,
2013-07-02 18:49:00,71.1,53.6,30.02,North,0,0.0,0.0,54,0.00,,,0.00,WUHU216HW,2013-07-02 23:49:00,
2013-07-02 18:54:00,70.9,53.4,30.02,North,0,0.0,0.0,54,0.00,,,0.00,WUHU216HW,2013-07-02 23:54:00,
2013-07-02 18:59:00,70.6,52.6,30.02,North,0,0.0,0.0,53,0.00,,,0.00,WUHU216HW,2013-07-02 23:59:00,
2013-07-02 19:01:00,70.6,52.6,30.02,North,0,0.0,0.0,53,0.00,,,0.00,WUHU216HW,2013-07-03 00:01:00,
2013-07-02 19:06:00,70.2,52.2,30.02,North,0,0.0,0.0,53,0.00,,,0.00,WUHU216HW,2013-07-03 00:06:00,
2013-07-02 19:11:00,69.8,51.4,30.02,North,0,0.0,0.0,52,0.00,,,0.00,WUHU216HW,2013-07-03 00:11:00,
2013-07-02 19:16:00,69.5,51.1,30.02,North,0,0.0,0.0,52,0.00,,,0.00,WUHU216HW,2013-07-03 00:16:00,
2013-07-02 19:21:00,69.5,51.6,30.02,North,0,0.0,0.0,53,0.00,,,0.00,WUHU216HW,2013-07-03 00:21:00,
2013-07-02 19:23:00,69.1,51.2,30.02,North,0,0.0,0.0,53,0.00,,,0.00,WUHU216HW,2013-07-03 00:23:00,
2013-07-02 19:24:00,69.1,51.2,30.02,North,0,0.0,0.0,53,0.00,,,0.00,WUHU216HW,2013-07-03 00:24:00,
2013-07-02 19:28:00,68.9,51.6,30.02,North,0,0.0,0.0,54,0.00,,,0.00,WUHU216HW,2013-07-03 00:28:00,
2013-07-02 19:33:00,68.4,51.0,30.02,North,0,0.0,0.0,54,0.00,,,0.00,WUHU216HW,2013-07-03 00:33:00,
2013-07-02 19:38:00,68.0,50.8,30.02,North,0,0.0,0.0,54,0.00,,,0.00,WUHU216HW,2013-07-03 00:38:00,
2013-07-02 19:43:00,67.9,51.6,30.02,North,0,0.0,0.0,56,0.00,,,0.00,WUHU216HW,2013-07-03 00:43:00,
2013-07-02 19:48:00,67.3,50.6,30.02,North,0,0.0,0.0,55,0.00,,,0.00,WUHU216HW,2013-07-03 00:48:00,
2013-07-02 19:53:00,67.1,50.4,30.02,North,0,0.0,0.0,55,0.00,,,0.00,WUHU216HW,2013-07-03 00:53:00,
2013-07-02 19:58:00,66.8,50.6,30.02,North,0,0.0,0.0,56,0.00,,,0.00,WUHU216HW,2013-07-03 00:58:00,
2013-07-02 20:00:00,66.6,50.4,30.02,North,0,0.0,0.0,56,0.00,,,0.00,WUHU216HW,2013-07-03 01:00:00,
2013-07-02 20:03:00,66.6,50.4,30.02,North,0,0.0,0.0,56,0.00,,,0.00,WUHU216HW,2013-07-03 01:03:00,
2013-07-02 20:08:00,66.2,50.6,30.02,North,0,0.0,0.0,57,0.00,,,0.00,WUHU216HW,2013-07-03 01:08:00,
2013-07-02 20:09:00,66.1,50.4,30.02,North,0,0.0,0.0,57,0.00,,,0.00,WUHU216HW,2013-07-03 01:09:00,
2013-07-02 20:14:00,65.9,50.2,30.02,North,0,0.0,0.0,57,0.00,,,0.00,WUHU216HW,2013-07-03 01:14:00,
2013-07-02 20:19:00,65.3,50.1,30.02,North,0,0.0,0.0,58,0.00,,,0.00,WUHU216HW,2013-07-03 01:19:00,
2013-07-02 20:24:00,65.0,49.8,30.02,North,0,0.0,0.0,58,0.00,,,0.00,WUHU216HW,2013-07-03 01:24:00,
2013-07-02 20:26:00,65.0,49.8,30.03,North,0,0.0,0.0,58,0.00,,,0.00,WUHU216HW,2013-07-03 01:26:00,
2013-07-02 20:31:00,64.4,49.8,30.03,North,0,0.0,0.0,59,0.00,,,0.00,WUHU216HW,2013-07-03 01:31:00,
2013-07-02 20:36:00,64.3,49.6,30.03,North,0,0.0,0.0,59,0.00,,,0.00,WUHU216HW,2013-07-03 01:36:00,
2013-07-02 20:41:00,63.7,49.6,30.02,North,0,0.0,0.0,60,0.00,,,0.00,WUHU216HW,2013-07-03 01:41:00,
2013-07-02 20:46:00,63.4,49.2,30.02,North,0,0.0,0.0,60,0.00,,,0.00,WUHU216HW,2013-07-03 01:46:00,
2013-07-02 20:49:00,63.2,49.5,30.02,North,0,0.0,0.0,61,0.00,,,0.00,WUHU216HW,2013-07-03 01:49:00,
2013-07-02 20:50:00,63.0,49.3,30.02,North,0,0.0,0.0,61,0.00,,,0.00,WUHU216HW,2013-07-03 01:50:00,
2013-07-02 20:56:00,62.6,48.6,30.02,North,0,0.0,0.0,60,0.00,,,0.00,WUHU216HW,2013-07-03 01:56:00,
2013-07-02 21:01:00,62.3,48.7,30.02,North,0,0.0,0.0,61,0.00,,,0.00,WUHU216HW,2013-07-03 02:01:00,
2013-07-02 21:06:00,61.7,48.3,30.03,North,0,0.0,0.0,61,0.00,,,0.00,WUHU216HW,2013-07-03 02:06:00,
2013-07-02 21:11:00,61.4,48.7,30.03,North,0,0.0,0.0,63,0.00,,,0.00,WUHU216HW,2013-07-03 02:11:00,
2013-07-02 21:16:00,61.2,49.0,30.03,North,0,0.0,0.0,64,0.00,,,0.00,WUHU216HW,2013-07-03 02:16:00,
2013-07-02 21:21:00,60.8,48.6,30.03,North,0,0.0,0.0,64,0.00,,,0.00,WUHU216HW,2013-07-03 02:21:00,
2013-07-02 21:26:00,60.7,48.1,30.04,North,0,0.0,0.0,63,0.00,,,0.00,WUHU216HW,2013-07-03 02:26:00,
2013-07-02 21:31:00,60.1,47.9,30.04,North,0,0.0,0.0,64,0.00,,,0.00,WUHU216HW,2013-07-03 02:31:00,
2013-07-02 21:32:00,60.1,47.9,30.04,North,0,0.0,0.0,64,0.00,,,0.00,WUHU216HW,2013-07-03 02:32:00,
2013-07-02 21:37:00,59.9,47.7,30.04,North,0,0.0,0.0,64,0.00,,,0.00,WUHU216HW,2013-07-03 02:37:00,
2013-07-02 21:42:00,59.8,47.5,30.04,North,0,0.0,0.0,64,0.00,,,0.00,WUHU216HW,2013-07-03 02:42:00,
2013-07-02 21:47:00,59.4,47.2,30.04,North,0,0.0,0.0,64,0.00,,,0.00,WUHU216HW,2013-07-03 02:47:00,
2013-07-02 21:48:00,59.4,47.2,30.04,North,0,0.0,0.0,64,0.00,,,0.00,WUHU216HW,2013-07-03 02:48:00,
2013-07-02 21:54:00,59.0,46.8,30.04,North,0,0.0,0.0,64,0.00,,,0.00,WUHU216HW,2013-07-03 02:54:00,
2013-07-02 21:59:00,58.7,46.9,30.04,North,0,0.0,0.0,65,0.00,,,0.00,WUHU216HW,2013-07-03 02:59:00,
2013-07-02 22:03:00,58.5,47.5,30.04,North,0,0.0,0.0,67,0.00,,,0.00,WUHU216HW,2013-07-03 03:03:00,
2013-07-02 22:08:00,58.1,47.3,30.04,North,0,0.0,0.0,67,0.00,,,0.00,WUHU216HW,2013-07-03 03:08:00,
2013-07-02 22:13:00,57.8,47.7,30.04,North,0,0.0,0.0,69,0.00,,,0.00,WUHU216HW,2013-07-03 03:13:00,
2013-07-02 22:18:00,57.4,47.7,30.04,North,0,0.0,0.0,70,0.00,,,0.00,WUHU216HW,2013-07-03 03:18:00,
2013-07-02 22:20:00,57.2,47.5,30.04,North,0,0.0,0.0,70,0.00,,,0.00,WUHU216HW,2013-07-03 03:20:00,
2013-07-02 22:25:00,56.7,47.1,30.04,North,0,0.0,0.0,70,0.00,,,0.00,WUHU216HW,2013-07-03 03:25:00,
2013-07-02 22:30:00,56.3,46.7,30.03,North,0,0.0,0.0,70,0.00,,,0.00,WUHU216HW,2013-07-03 03:30:00,
2013-07-02 22:35:00,56.0,47.1,30.04,North,0,0.0,0.0,72,0.00,,,0.00,WUHU216HW,2013-07-03 03:35:00,
2013-07-02 22:36:00,56.0,47.1,30.04,North,0,0.0,0.0,72,0.00,,,0.00,WUHU216HW,2013-07-03 03:36:00,
2013-07-02 22:39:00,55.8,47.3,30.04,North,0,0.0,0.0,73,0.00,,,0.00,WUHU216HW,2013-07-03 03:39:00,
2013-07-02 22:44:00,55.6,47.1,30.04,North,0,0.0,0.0,73,0.00,,,0.00,WUHU216HW,2013-07-03 03:44:00,
2013-07-02 22:49:00,55.1,46.6,30.04,North,0,0.0,0.0,73,0.00,,,0.00,WUHU216HW,2013-07-03 03:49:00,
2013-07-02 22:54:00,55.1,46.9,30.04,North,0,0.0,0.0,74,0.00,,,0.00,WUHU216HW,2013-07-03 03:54:00,
2013-07-02 22:59:00,54.9,47.1,30.04,North,0,0.0,0.0,75,0.00,,,0.00,WUHU216HW,2013-07-03 03:59:00,
2013-07-02 23:00:00,54.9,47.1,30.04,North,0,0.0,0.0,75,0.00,,,0.00,WUHU216HW,2013-07-03 04:00:00,
2013-07-02 23:01:00,54.9,47.1,30.04,North,0,0.0,0.0,75,0.00,,,0.00,WUHU216HW,2013-07-03 04:01:00,
2013-07-02 23:03:00,54.9,47.4,30.04,North,0,0.0,0.0,76,0.00,,,0.00,WUHU216HW,2013-07-03 04:03:00,
2013-07-02 23:04:00,54.9,47.4,30.04,North,0,0.0,0.0,76,0.00,,,0.00,WUHU216HW,2013-07-03 04:04:00,
2013-07-02 23:09:00,54.7,47.3,30.04,North,0,0.0,0.0,76,0.00,,,0.00,WUHU216HW,2013-07-03 04:09:00,
2013-07-02 23:14:00,54.7,47.3,30.04,North,0,0.0,0.0,76,0.00,,,0.00,WUHU216HW,2013-07-03 04:14:00,
2013-07-02 23:19:00,54.4,46.6,30.04,North,0,0.0,0.0,75,0.00,,,0.00,WUHU216HW,2013-07-03 04:19:00,
2013-07-02 23:24:00,54.5,47.8,30.04,North,0,0.0,0.0,78,0.00,,,0.00,WUHU216HW,2013-07-03 04:24:00,
2013-07-02 23:29:00,54.4,47.6,30.04,North,0,0.0,0.0,78,0.00,,,0.00,WUHU216HW,2013-07-03 04:29:00,
2013-07-02 23:31:00,54.2,47.5,30.04,North,0,0.0,0.0,78,0.00,,,0.00,WUHU216HW,2013-07-03 04:31:00,
2013-07-02 23:32:00,54.2,47.5,30.04,North,0,0.0,0.0,78,0.00,,,0.00,WUHU216HW,2013-07-03 04:32:00,
2013-07-02 23:37:00,53.6,47.0,30.04,North,0,0.0,0.0,78,0.00,,,0.00,WUHU216HW,2013-07-03 04:37:00,
2013-07-02 23:42:00,53.3,46.6,30.04,North,0,0.0,0.0,78,0.00,,,0.00,WUHU216HW,2013-07-03 04:42:00,
2013-07-02 23:45:00,53.3,46.6,30.03,North,0,0.0,0.0,78,0.00,,,0.00,WUHU216HW,2013-07-03 04:45:00,
2013-07-02 23:46:00,53.3,46.6,30.03,North,0,0.0,0.0,78,0.00,,,0.00,WUHU216HW,2013-07-03 04:46:00,
2013-07-02 23:51:00,53.5,47.5,30.03,North,0,0.0,0.0,80,0.00,,,0.00,WUHU216HW,2013-07-03 04:51:00,
2013-07-02 23:53:00,53.5,47.8,30.03,North,0,0.0,0.0,81,0.00,,,0.00,WUHU216HW,2013-07-03 04:53:00,
2013-07-02 23:58:00,53.3,48.0,30.03,North,0,0.0,0.0,82,0.00,,,0.00,WUHU216HW,2013-07-03 04:58:00,